Terminal Aerodrome Forecast
Issued by NWS

Current Version | Previous Version | Text Only | Print | Product List | Glossary On
Versions: 1 2 3 4 5 6 7 8 9 10 11 12 13 14 15 16
000
FTUS41 KBTV 190528
TAFMSS
TAF
KMSS 190528Z 1906/2006 23006KT 6SM BR OVC004
     FM191300 24005KT 3SM BR OVC008
     FM191500 25005KT P6SM OVC015
     FM200200 00000KT 6SM BR OVC020=

USA.gov is the U.S. government's official web portal to all federal, state and local government web resources and services.